sensor_id;sensor_type;location;lat;lon;timestamp;P1;durP1;ratioP1;P2;durP2;ratioP2
18661;SDS011;61528;49.456;11.098;2023-04-06T00:01:20;7.20;;;4.67;;
18661;SDS011;61528;49.456;11.098;2023-04-06T00:03:46;7.00;;;4.67;;
18661;SDS011;61528;49.456;11.098;2023-04-06T00:06:13;6.47;;;4.60;;
18661;SDS011;61528;49.456;11.098;2023-04-06T00:08:39;8.50;;;4.57;;
18661;SDS011;61528;49.456;11.098;2023-04-06T00:11:06;7.10;;;4.83;;
18661;SDS011;61528;49.456;11.098;2023-04-06T00:13:33;7.83;;;5.27;;
18661;SDS011;61528;49.456;11.098;2023-04-06T00:16:00;6.23;;;4.60;;
18661;SDS011;61528;49.456;11.098;2023-04-06T00:18:26;9.67;;;4.57;;
18661;SDS011;61528;49.456;11.098;2023-04-06T00:20:52;8.33;;;4.67;;
18661;SDS011;61528;49.456;11.098;2023-04-06T00:23:19;8.13;;;4.70;;
18661;SDS011;61528;49.456;11.098;2023-04-06T00:25:45;7.97;;;4.73;;
18661;SDS011;61528;49.456;11.098;2023-04-06T00:28:12;6.80;;;4.73;;
18661;SDS011;61528;49.456;11.098;2023-04-06T00:30:38;8.67;;;4.57;;
18661;SDS011;61528;49.456;11.098;2023-04-06T00:33:05;7.50;;;4.87;;
18661;SDS011;61528;49.456;11.098;2023-04-06T00:35:31;6.20;;;4.63;;
18661;SDS011;61528;49.456;11.098;2023-04-06T00:37:58;10.43;;;5.07;;
18661;SDS011;61528;49.456;11.098;2023-04-06T00:40:24;7.93;;;4.70;;
18661;SDS011;61528;49.456;11.098;2023-04-06T00:42:52;5.70;;;4.63;;
18661;SDS011;61528;49.456;11.098;2023-04-06T00:45:19;7.27;;;4.07;;
18661;SDS011;61528;49.456;11.098;2023-04-06T00:47:46;7.37;;;4.50;;
18661;SDS011;61528;49.456;11.098;2023-04-06T00:50:15;7.47;;;4.80;;
18661;SDS011;61528;49.456;11.098;2023-04-06T00:52:41;7.90;;;4.67;;
18661;SDS011;61528;49.456;11.098;2023-04-06T00:55:07;8.70;;;4.70;;
18661;SDS011;61528;49.456;11.098;2023-04-06T00:57:34;6.40;;;4.40;;
18661;SDS011;61528;49.456;11.098;2023-04-06T01:00:03;7.07;;;4.60;;
18661;SDS011;61528;49.456;11.098;2023-04-06T01:02:29;6.13;;;4.40;;
18661;SDS011;61528;49.456;11.098;2023-04-06T01:04:56;7.97;;;4.40;;
18661;SDS011;61528;49.456;11.098;2023-04-06T01:07:22;6.53;;;3.97;;
18661;SDS011;61528;49.456;11.098;2023-04-06T01:09:49;10.33;;;5.20;;
18661;SDS011;61528;49.456;11.098;2023-04-06T01:12:16;8.17;;;4.97;;
18661;SDS011;61528;49.456;11.098;2023-04-06T01:14:42;13.20;;;6.47;;
18661;SDS011;61528;49.456;11.098;2023-04-06T01:17:09;8.93;;;5.57;;
18661;SDS011;61528;49.456;11.098;2023-04-06T01:19:36;8.90;;;5.23;;
18661;SDS011;61528;49.456;11.098;2023-04-06T01:22:02;9.93;;;4.90;;
18661;SDS011;61528;49.456;11.098;2023-04-06T01:24:28;5.50;;;4.20;;
18661;SDS011;61528;49.456;11.098;2023-04-06T01:26:55;8.80;;;4.47;;
18661;SDS011;61528;49.456;11.098;2023-04-06T01:29:21;6.03;;;4.00;;
18661;SDS011;61528;49.456;11.098;2023-04-06T01:31:50;7.10;;;4.53;;
18661;SDS011;61528;49.456;11.098;2023-04-06T01:34:16;6.83;;;4.10;;
18661;SDS011;61528;49.456;11.098;2023-04-06T01:36:42;7.73;;;4.83;;
18661;SDS011;61528;49.456;11.098;2023-04-06T01:39:08;7.47;;;4.83;;
18661;SDS011;61528;49.456;11.098;2023-04-06T01:41:35;9.33;;;4.87;;
18661;SDS011;61528;49.456;11.098;2023-04-06T01:44:02;6.70;;;4.77;;
18661;SDS011;61528;49.456;11.098;2023-04-06T01:46:28;7.00;;;4.80;;
18661;SDS011;61528;49.456;11.098;2023-04-06T01:48:54;7.23;;;4.73;;
18661;SDS011;61528;49.456;11.098;2023-04-06T01:51:21;7.73;;;4.80;;
18661;SDS011;61528;49.456;11.098;2023-04-06T01:53:47;7.20;;;4.60;;
18661;SDS011;61528;49.456;11.098;2023-04-06T01:56:14;8.33;;;4.97;;
18661;SDS011;61528;49.456;11.098;2023-04-06T01:58:40;8.23;;;4.23;;
18661;SDS011;61528;49.456;11.098;2023-04-06T02:01:06;7.00;;;4.47;;
18661;SDS011;61528;49.456;11.098;2023-04-06T02:03:33;8.17;;;4.90;;
18661;SDS011;61528;49.456;11.098;2023-04-06T02:05:59;6.00;;;4.30;;
18661;SDS011;61528;49.456;11.098;2023-04-06T02:08:25;6.43;;;4.50;;
18661;SDS011;61528;49.456;11.098;2023-04-06T02:10:52;6.70;;;4.20;;
18661;SDS011;61528;49.456;11.098;2023-04-06T02:13:21;7.17;;;4.90;;
18661;SDS011;61528;49.456;11.098;2023-04-06T02:15:47;6.90;;;4.27;;
18661;SDS011;61528;49.456;11.098;2023-04-06T02:18:13;7.93;;;4.90;;
18661;SDS011;61528;49.456;11.098;2023-04-06T02:20:42;7.77;;;4.23;;
18661;SDS011;61528;49.456;11.098;2023-04-06T02:23:09;5.17;;;4.30;;
18661;SDS011;61528;49.456;11.098;2023-04-06T02:25:36;6.07;;;4.23;;
18661;SDS011;61528;49.456;11.098;2023-04-06T02:28:02;6.87;;;4.30;;
18661;SDS011;61528;49.456;11.098;2023-04-06T02:30:29;5.73;;;4.23;;
18661;SDS011;61528;49.456;11.098;2023-04-06T02:33:00;5.90;;;4.20;;
18661;SDS011;61528;49.456;11.098;2023-04-06T02:35:30;7.50;;;4.57;;
18661;SDS011;61528;49.456;11.098;2023-04-06T02:37:57;9.47;;;4.87;;
18661;SDS011;61528;49.456;11.098;2023-04-06T02:40:23;4.90;;;4.17;;
18661;SDS011;61528;49.456;11.098;2023-04-06T02:42:49;10.80;;;4.83;;
18661;SDS011;61528;49.456;11.098;2023-04-06T02:45:16;7.40;;;4.37;;
18661;SDS011;61528;49.456;11.098;2023-04-06T02:47:42;8.27;;;4.27;;
18661;SDS011;61528;49.456;11.098;2023-04-06T02:50:08;6.87;;;4.03;;
18661;SDS011;61528;49.456;11.098;2023-04-06T02:52:35;6.53;;;4.27;;
18661;SDS011;61528;49.456;11.098;2023-04-06T02:55:01;7.77;;;4.33;;
18661;SDS011;61528;49.456;11.098;2023-04-06T02:57:28;6.53;;;4.10;;
18661;SDS011;61528;49.456;11.098;2023-04-06T02:59:54;5.60;;;4.10;;
18661;SDS011;61528;49.456;11.098;2023-04-06T03:02:21;6.53;;;3.83;;
18661;SDS011;61528;49.456;11.098;2023-04-06T03:04:47;7.83;;;4.30;;
18661;SDS011;61528;49.456;11.098;2023-04-06T03:07:13;4.57;;;4.00;;
18661;SDS011;61528;49.456;11.098;2023-04-06T03:09:39;6.70;;;4.00;;
18661;SDS011;61528;49.456;11.098;2023-04-06T03:12:06;7.03;;;4.00;;
18661;SDS011;61528;49.456;11.098;2023-04-06T03:14:32;5.63;;;4.00;;
18661;SDS011;61528;49.456;11.098;2023-04-06T03:16:59;5.77;;;4.33;;
18661;SDS011;61528;49.456;11.098;2023-04-06T03:19:25;6.50;;;4.07;;
18661;SDS011;61528;49.456;11.098;2023-04-06T03:21:52;10.20;;;4.10;;
18661;SDS011;61528;49.456;11.098;2023-04-06T03:24:18;5.73;;;4.10;;
18661;SDS011;61528;49.456;11.098;2023-04-06T03:26:44;6.53;;;4.43;;
18661;SDS011;61528;49.456;11.098;2023-04-06T03:29:11;6.77;;;4.13;;
18661;SDS011;61528;49.456;11.098;2023-04-06T03:31:37;8.57;;;4.63;;
18661;SDS011;61528;49.456;11.098;2023-04-06T03:34:03;6.40;;;3.60;;
18661;SDS011;61528;49.456;11.098;2023-04-06T03:36:30;4.27;;;3.60;;
18661;SDS011;61528;49.456;11.098;2023-04-06T03:38:56;5.10;;;3.63;;
18661;SDS011;61528;49.456;11.098;2023-04-06T03:41:22;6.53;;;3.70;;
18661;SDS011;61528;49.456;11.098;2023-04-06T03:43:48;5.50;;;3.80;;
18661;SDS011;61528;49.456;11.098;2023-04-06T03:46:15;6.90;;;4.13;;
18661;SDS011;61528;49.456;11.098;2023-04-06T03:48:41;7.40;;;4.20;;
18661;SDS011;61528;49.456;11.098;2023-04-06T03:51:07;4.83;;;3.87;;
18661;SDS011;61528;49.456;11.098;2023-04-06T03:53:34;6.40;;;3.73;;
18661;SDS011;61528;49.456;11.098;2023-04-06T03:56:02;4.20;;;3.60;;
18661;SDS011;61528;49.456;11.098;2023-04-06T03:58:28;6.63;;;4.23;;
18661;SDS011;61528;49.456;11.098;2023-04-06T04:00:55;6.17;;;3.80;;
18661;SDS011;61528;49.456;11.098;2023-04-06T04:03:21;6.47;;;4.07;;
18661;SDS011;61528;49.456;11.098;2023-04-06T04:05:49;5.60;;;4.10;;
18661;SDS011;61528;49.456;11.098;2023-04-06T04:08:16;6.00;;;3.53;;
18661;SDS011;61528;49.456;11.098;2023-04-06T04:10:42;6.10;;;4.00;;
18661;SDS011;61528;49.456;11.098;2023-04-06T04:13:08;8.33;;;5.00;;
18661;SDS011;61528;49.456;11.098;2023-04-06T04:15:34;7.80;;;4.40;;
18661;SDS011;61528;49.456;11.098;2023-04-06T04:18:01;5.67;;;4.40;;
18661;SDS011;61528;49.456;11.098;2023-04-06T04:20:27;6.00;;;4.13;;
18661;SDS011;61528;49.456;11.098;2023-04-06T04:22:54;6.83;;;4.43;;
18661;SDS011;61528;49.456;11.098;2023-04-06T04:25:20;4.90;;;3.83;;
18661;SDS011;61528;49.456;11.098;2023-04-06T04:27:46;7.53;;;4.43;;
18661;SDS011;61528;49.456;11.098;2023-04-06T04:30:13;6.20;;;4.23;;
18661;SDS011;61528;49.456;11.098;2023-04-06T04:32:39;8.37;;;4.50;;
18661;SDS011;61528;49.456;11.098;2023-04-06T04:35:06;4.87;;;3.90;;
18661;SDS011;61528;49.456;11.098;2023-04-06T04:37:32;6.27;;;4.30;;
18661;SDS011;61528;49.456;11.098;2023-04-06T04:40:00;7.97;;;3.97;;
18661;SDS011;61528;49.456;11.098;2023-04-06T04:42:26;5.90;;;4.77;;
18661;SDS011;61528;49.456;11.098;2023-04-06T04:44:53;8.10;;;4.60;;
18661;SDS011;61528;49.456;11.098;2023-04-06T04:47:19;5.53;;;4.00;;
18661;SDS011;61528;49.456;11.098;2023-04-06T04:49:45;8.87;;;4.80;;
18661;SDS011;61528;49.456;11.098;2023-04-06T04:52:11;7.40;;;4.30;;
18661;SDS011;61528;49.456;11.098;2023-04-06T04:54:38;5.37;;;3.97;;
18661;SDS011;61528;49.456;11.098;2023-04-06T04:57:06;7.17;;;4.80;;
18661;SDS011;61528;49.456;11.098;2023-04-06T04:59:34;6.20;;;3.97;;
18661;SDS011;61528;49.456;11.098;2023-04-06T05:02:00;9.40;;;4.20;;
18661;SDS011;61528;49.456;11.098;2023-04-06T05:04:27;7.73;;;4.00;;
18661;SDS011;61528;49.456;11.098;2023-04-06T05:07:05;5.87;;;4.27;;
18661;SDS011;61528;49.456;11.098;2023-04-06T05:09:32;8.67;;;4.53;;
18661;SDS011;61528;49.456;11.098;2023-04-06T05:11:59;6.73;;;4.27;;
18661;SDS011;61528;49.456;11.098;2023-04-06T05:14:25;5.73;;;4.07;;
18661;SDS011;61528;49.456;11.098;2023-04-06T05:16:52;6.80;;;4.53;;
18661;SDS011;61528;49.456;11.098;2023-04-06T05:19:18;8.83;;;4.43;;
18661;SDS011;61528;49.456;11.098;2023-04-06T05:21:45;7.07;;;4.40;;
18661;SDS011;61528;49.456;11.098;2023-04-06T05:24:11;6.00;;;3.90;;
18661;SDS011;61528;49.456;11.098;2023-04-06T05:26:38;5.83;;;4.20;;
18661;SDS011;61528;49.456;11.098;2023-04-06T05:29:05;8.37;;;3.97;;
18661;SDS011;61528;49.456;11.098;2023-04-06T05:31:31;11.33;;;4.90;;
18661;SDS011;61528;49.456;11.098;2023-04-06T05:33:58;8.60;;;5.00;;
18661;SDS011;61528;49.456;11.098;2023-04-06T05:36:24;8.23;;;4.30;;
18661;SDS011;61528;49.456;11.098;2023-04-06T05:38:51;8.20;;;4.43;;
18661;SDS011;61528;49.456;11.098;2023-04-06T05:41:18;7.13;;;4.53;;
18661;SDS011;61528;49.456;11.098;2023-04-06T05:43:45;5.53;;;4.30;;
18661;SDS011;61528;49.456;11.098;2023-04-06T05:46:11;9.10;;;5.23;;
18661;SDS011;61528;49.456;11.098;2023-04-06T05:48:37;7.90;;;4.73;;
18661;SDS011;61528;49.456;11.098;2023-04-06T05:51:04;5.90;;;4.27;;
18661;SDS011;61528;49.456;11.098;2023-04-06T05:53:31;5.33;;;4.33;;
18661;SDS011;61528;49.456;11.098;2023-04-06T05:56:01;7.40;;;5.30;;
18661;SDS011;61528;49.456;11.098;2023-04-06T05:58:27;9.00;;;5.30;;
18661;SDS011;61528;49.456;11.098;2023-04-06T06:01:00;7.93;;;4.67;;
18661;SDS011;61528;49.456;11.098;2023-04-06T06:03:27;6.50;;;4.70;;
18661;SDS011;61528;49.456;11.098;2023-04-06T06:05:59;6.77;;;4.47;;
18661;SDS011;61528;49.456;11.098;2023-04-06T06:08:26;7.77;;;5.20;;
18661;SDS011;61528;49.456;11.098;2023-04-06T06:10:52;8.57;;;5.60;;
18661;SDS011;61528;49.456;11.098;2023-04-06T06:13:18;9.90;;;5.23;;
18661;SDS011;61528;49.456;11.098;2023-04-06T06:15:45;8.77;;;5.23;;
18661;SDS011;61528;49.456;11.098;2023-04-06T06:18:11;8.30;;;5.67;;
18661;SDS011;61528;49.456;11.098;2023-04-06T06:20:37;9.07;;;5.13;;
18661;SDS011;61528;49.456;11.098;2023-04-06T06:23:04;9.90;;;6.10;;
18661;SDS011;61528;49.456;11.098;2023-04-06T06:25:30;9.80;;;5.83;;
18661;SDS011;61528;49.456;11.098;2023-04-06T06:27:57;9.77;;;5.60;;
18661;SDS011;61528;49.456;11.098;2023-04-06T06:30:24;7.53;;;5.20;;
18661;SDS011;61528;49.456;11.098;2023-04-06T06:32:51;11.87;;;5.67;;
18661;SDS011;61528;49.456;11.098;2023-04-06T06:35:18;9.00;;;5.33;;
18661;SDS011;61528;49.456;11.098;2023-04-06T06:37:45;8.27;;;5.63;;
18661;SDS011;61528;49.456;11.098;2023-04-06T06:42:59;6.73;;;5.10;;
18661;SDS011;61528;49.456;11.098;2023-04-06T06:45:25;8.67;;;5.70;;
18661;SDS011;61528;49.456;11.098;2023-04-06T06:47:51;6.60;;;5.17;;
18661;SDS011;61528;49.456;11.098;2023-04-06T06:50:18;8.57;;;5.73;;
18661;SDS011;61528;49.456;11.098;2023-04-06T06:52:45;7.77;;;4.67;;
18661;SDS011;61528;49.456;11.098;2023-04-06T06:55:11;7.53;;;5.10;;
18661;SDS011;61528;49.456;11.098;2023-04-06T06:57:37;7.30;;;4.87;;
18661;SDS011;61528;49.456;11.098;2023-04-06T07:00:04;8.83;;;5.27;;
18661;SDS011;61528;49.456;11.098;2023-04-06T07:02:33;8.87;;;5.93;;
18661;SDS011;61528;49.456;11.098;2023-04-06T07:05:00;9.27;;;5.17;;
18661;SDS011;61528;49.456;11.098;2023-04-06T07:07:27;7.13;;;4.60;;
18661;SDS011;61528;49.456;11.098;2023-04-06T07:09:53;6.13;;;4.33;;
18661;SDS011;61528;49.456;11.098;2023-04-06T07:12:19;7.80;;;4.70;;
18661;SDS011;61528;49.456;11.098;2023-04-06T07:14:46;6.77;;;4.40;;
18661;SDS011;61528;49.456;11.098;2023-04-06T07:17:12;9.27;;;5.47;;
18661;SDS011;61528;49.456;11.098;2023-04-06T07:19:38;7.20;;;5.07;;
18661;SDS011;61528;49.456;11.098;2023-04-06T07:22:05;9.07;;;4.83;;
18661;SDS011;61528;49.456;11.098;2023-04-06T07:24:32;5.90;;;4.67;;
18661;SDS011;61528;49.456;11.098;2023-04-06T07:26:58;9.10;;;5.00;;
18661;SDS011;61528;49.456;11.098;2023-04-06T07:29:26;9.67;;;5.13;;
18661;SDS011;61528;49.456;11.098;2023-04-06T07:31:52;7.50;;;4.80;;
18661;SDS011;61528;49.456;11.098;2023-04-06T07:34:19;8.53;;;5.07;;
18661;SDS011;61528;49.456;11.098;2023-04-06T07:36:45;7.57;;;4.80;;
18661;SDS011;61528;49.456;11.098;2023-04-06T07:39:11;9.07;;;5.03;;
18661;SDS011;61528;49.456;11.098;2023-04-06T07:41:38;7.50;;;5.00;;
18661;SDS011;61528;49.456;11.098;2023-04-06T07:44:05;9.00;;;5.67;;
18661;SDS011;61528;49.456;11.098;2023-04-06T07:46:31;8.47;;;5.20;;
18661;SDS011;61528;49.456;11.098;2023-04-06T07:48:59;7.70;;;4.87;;
18661;SDS011;61528;49.456;11.098;2023-04-06T07:51:26;7.27;;;5.13;;
18661;SDS011;61528;49.456;11.098;2023-04-06T07:53:52;8.63;;;4.67;;
18661;SDS011;61528;49.456;11.098;2023-04-06T07:56:19;8.37;;;4.97;;
18661;SDS011;61528;49.456;11.098;2023-04-06T07:58:46;7.43;;;5.00;;
18661;SDS011;61528;49.456;11.098;2023-04-06T08:01:12;6.17;;;5.23;;
18661;SDS011;61528;49.456;11.098;2023-04-06T08:03:38;8.10;;;4.63;;
18661;SDS011;61528;49.456;11.098;2023-04-06T08:06:05;7.03;;;5.00;;
18661;SDS011;61528;49.456;11.098;2023-04-06T08:08:31;7.80;;;4.63;;
18661;SDS011;61528;49.456;11.098;2023-04-06T08:10:58;7.33;;;5.00;;
18661;SDS011;61528;49.456;11.098;2023-04-06T08:13:27;9.33;;;5.60;;
18661;SDS011;61528;49.456;11.098;2023-04-06T08:15:54;7.97;;;5.10;;
18661;SDS011;61528;49.456;11.098;2023-04-06T08:18:20;8.40;;;4.67;;
18661;SDS011;61528;49.456;11.098;2023-04-06T08:20:46;7.40;;;5.00;;
18661;SDS011;61528;49.456;11.098;2023-04-06T08:23:14;9.20;;;5.73;;
18661;SDS011;61528;49.456;11.098;2023-04-06T08:25:41;7.43;;;5.03;;
18661;SDS011;61528;49.456;11.098;2023-04-06T08:28:07;6.83;;;5.13;;
18661;SDS011;61528;49.456;11.098;2023-04-06T08:30:34;8.30;;;5.67;;
18661;SDS011;61528;49.456;11.098;2023-04-06T08:33:02;8.53;;;5.70;;
18661;SDS011;61528;49.456;11.098;2023-04-06T08:35:28;9.27;;;5.83;;
18661;SDS011;61528;49.456;11.098;2023-04-06T08:37:55;8.83;;;5.17;;
18661;SDS011;61528;49.456;11.098;2023-04-06T08:40:21;9.07;;;5.57;;
18661;SDS011;61528;49.456;11.098;2023-04-06T08:42:57;8.77;;;5.93;;
18661;SDS011;61528;49.456;11.098;2023-04-06T08:45:27;8.33;;;5.73;;
18661;SDS011;61528;49.456;11.098;2023-04-06T08:47:53;8.83;;;5.90;;
18661;SDS011;61528;49.456;11.098;2023-04-06T08:50:20;9.00;;;5.77;;
18661;SDS011;61528;49.456;11.098;2023-04-06T08:52:47;9.23;;;5.70;;
18661;SDS011;61528;49.456;11.098;2023-04-06T08:55:14;8.00;;;5.27;;
18661;SDS011;61528;49.456;11.098;2023-04-06T08:57:41;7.77;;;5.43;;
18661;SDS011;61528;49.456;11.098;2023-04-06T09:00:09;8.20;;;5.60;;
18661;SDS011;61528;49.456;11.098;2023-04-06T09:02:39;8.33;;;5.73;;
18661;SDS011;61528;49.456;11.098;2023-04-06T09:05:07;7.77;;;5.47;;
18661;SDS011;61528;49.456;11.098;2023-04-06T09:07:34;8.23;;;4.87;;
18661;SDS011;61528;49.456;11.098;2023-04-06T09:10:00;9.17;;;6.07;;
18661;SDS011;61528;49.456;11.098;2023-04-06T09:12:27;9.23;;;5.20;;
18661;SDS011;61528;49.456;11.098;2023-04-06T09:14:54;7.40;;;5.20;;
18661;SDS011;61528;49.456;11.098;2023-04-06T09:17:21;7.87;;;5.60;;
18661;SDS011;61528;49.456;11.098;2023-04-06T09:19:48;6.07;;;5.07;;
18661;SDS011;61528;49.456;11.098;2023-04-06T09:22:14;6.93;;;5.23;;
18661;SDS011;61528;49.456;11.098;2023-04-06T09:24:45;7.73;;;5.43;;
18661;SDS011;61528;49.456;11.098;2023-04-06T09:27:12;8.83;;;5.97;;
18661;SDS011;61528;49.456;11.098;2023-04-06T09:29:39;8.23;;;5.40;;
18661;SDS011;61528;49.456;11.098;2023-04-06T09:32:06;7.73;;;5.70;;
18661;SDS011;61528;49.456;11.098;2023-04-06T09:34:33;8.60;;;5.87;;
18661;SDS011;61528;49.456;11.098;2023-04-06T09:36:59;8.60;;;5.60;;
18661;SDS011;61528;49.456;11.098;2023-04-06T09:39:26;9.63;;;6.10;;
18661;SDS011;61528;49.456;11.098;2023-04-06T09:41:53;6.50;;;5.70;;
18661;SDS011;61528;49.456;11.098;2023-04-06T09:44:20;9.63;;;6.70;;
18661;SDS011;61528;49.456;11.098;2023-04-06T09:46:49;8.57;;;6.13;;
18661;SDS011;61528;49.456;11.098;2023-04-06T09:49:15;10.20;;;6.50;;
18661;SDS011;61528;49.456;11.098;2023-04-06T09:54:08;8.17;;;6.50;;
18661;SDS011;61528;49.456;11.098;2023-04-06T09:56:50;11.87;;;7.17;;
18661;SDS011;61528;49.456;11.098;2023-04-06T09:59:18;7.10;;;6.37;;
18661;SDS011;61528;49.456;11.098;2023-04-06T10:01:46;8.43;;;6.37;;
18661;SDS011;61528;49.456;11.098;2023-04-06T10:06:46;7.13;;;6.13;;
18661;SDS011;61528;49.456;11.098;2023-04-06T10:09:17;8.47;;;6.70;;
18661;SDS011;61528;49.456;11.098;2023-04-06T10:11:43;9.03;;;6.90;;
18661;SDS011;61528;49.456;11.098;2023-04-06T10:14:10;9.00;;;7.07;;
18661;SDS011;61528;49.456;11.098;2023-04-06T10:16:37;8.57;;;6.53;;
18661;SDS011;61528;49.456;11.098;2023-04-06T10:19:08;7.40;;;6.10;;
18661;SDS011;61528;49.456;11.098;2023-04-06T10:21:36;8.27;;;6.40;;
18661;SDS011;61528;49.456;11.098;2023-04-06T10:24:07;8.43;;;6.70;;
18661;SDS011;61528;49.456;11.098;2023-04-06T10:26:36;8.57;;;6.87;;
18661;SDS011;61528;49.456;11.098;2023-04-06T10:29:02;8.40;;;6.53;;
18661;SDS011;61528;49.456;11.098;2023-04-06T10:31:29;8.17;;;6.83;;
18661;SDS011;61528;49.456;11.098;2023-04-06T10:33:56;8.37;;;6.30;;
18661;SDS011;61528;49.456;11.098;2023-04-06T10:36:24;7.37;;;6.50;;
18661;SDS011;61528;49.456;11.098;2023-04-06T10:38:55;9.90;;;6.77;;
18661;SDS011;61528;49.456;11.098;2023-04-06T10:41:22;9.20;;;6.90;;
18661;SDS011;61528;49.456;11.098;2023-04-06T10:43:55;8.87;;;6.83;;
18661;SDS011;61528;49.456;11.098;2023-04-06T10:46:25;7.10;;;6.40;;
18661;SDS011;61528;49.456;11.098;2023-04-06T10:48:51;9.17;;;6.93;;
18661;SDS011;61528;49.456;11.098;2023-04-06T10:51:18;8.07;;;6.40;;
18661;SDS011;61528;49.456;11.098;2023-04-06T10:53:45;7.60;;;6.30;;
18661;SDS011;61528;49.456;11.098;2023-04-06T10:56:14;7.93;;;6.13;;
18661;SDS011;61528;49.456;11.098;2023-04-06T10:58:45;7.00;;;6.20;;
18661;SDS011;61528;49.456;11.098;2023-04-06T11:01:12;8.30;;;6.03;;
18661;SDS011;61528;49.456;11.098;2023-04-06T11:03:47;7.13;;;6.07;;
18661;SDS011;61528;49.456;11.098;2023-04-06T11:06:18;7.73;;;6.60;;
18661;SDS011;61528;49.456;11.098;2023-04-06T11:08:45;9.90;;;6.80;;
18661;SDS011;61528;49.456;11.098;2023-04-06T11:11:12;7.90;;;6.20;;
18661;SDS011;61528;49.456;11.098;2023-04-06T11:13:44;7.27;;;6.30;;
18661;SDS011;61528;49.456;11.098;2023-04-06T11:16:29;6.93;;;5.67;;
18661;SDS011;61528;49.456;11.098;2023-04-06T11:18:58;7.63;;;6.50;;
18661;SDS011;61528;49.456;11.098;2023-04-06T11:24:22;7.40;;;6.20;;
18661;SDS011;61528;49.456;11.098;2023-04-06T11:26:49;6.17;;;5.57;;
18661;SDS011;61528;49.456;11.098;2023-04-06T11:29:19;7.43;;;5.63;;
18661;SDS011;61528;49.456;11.098;2023-04-06T11:31:50;7.10;;;5.60;;
18661;SDS011;61528;49.456;11.098;2023-04-06T11:34:19;7.90;;;5.70;;
18661;SDS011;61528;49.456;11.098;2023-04-06T11:36:46;7.07;;;5.63;;
18661;SDS011;61528;49.456;11.098;2023-04-06T11:39:13;6.53;;;5.93;;
18661;SDS011;61528;49.456;11.098;2023-04-06T11:41:39;7.37;;;6.37;;
18661;SDS011;61528;49.456;11.098;2023-04-06T11:44:06;8.53;;;5.80;;
18661;SDS011;61528;49.456;11.098;2023-04-06T11:46:32;6.50;;;5.80;;
18661;SDS011;61528;49.456;11.098;2023-04-06T11:48:59;9.07;;;6.37;;
18661;SDS011;61528;49.456;11.098;2023-04-06T11:51:26;6.67;;;6.00;;
18661;SDS011;61528;49.456;11.098;2023-04-06T11:53:52;7.03;;;5.77;;
18661;SDS011;61528;49.456;11.098;2023-04-06T11:56:25;5.67;;;5.07;;
18661;SDS011;61528;49.456;11.098;2023-04-06T11:58:52;8.07;;;6.43;;
18661;SDS011;61528;49.456;11.098;2023-04-06T12:01:18;7.07;;;5.97;;
18661;SDS011;61528;49.456;11.098;2023-04-06T12:03:44;8.13;;;6.57;;
18661;SDS011;61528;49.456;11.098;2023-04-06T12:06:11;7.00;;;5.93;;
18661;SDS011;61528;49.456;11.098;2023-04-06T12:08:37;7.57;;;6.20;;
18661;SDS011;61528;49.456;11.098;2023-04-06T12:11:03;6.38;;;5.60;;
18661;SDS011;61528;49.456;11.098;2023-04-06T12:13:30;5.43;;;4.60;;
18661;SDS011;61528;49.456;11.098;2023-04-06T12:15:56;5.57;;;4.97;;
18661;SDS011;61528;49.456;11.098;2023-04-06T12:18:22;5.50;;;4.90;;
18661;SDS011;61528;49.456;11.098;2023-04-06T12:20:51;6.37;;;5.37;;
18661;SDS011;61528;49.456;11.098;2023-04-06T12:23:18;5.73;;;5.20;;
18661;SDS011;61528;49.456;11.098;2023-04-06T12:25:45;6.07;;;5.47;;
18661;SDS011;61528;49.456;11.098;2023-04-06T12:28:11;6.00;;;5.40;;
18661;SDS011;61528;49.456;11.098;2023-04-06T12:30:38;5.90;;;5.30;;
18661;SDS011;61528;49.456;11.098;2023-04-06T12:33:06;6.70;;;5.67;;
18661;SDS011;61528;49.456;11.098;2023-04-06T12:35:36;7.40;;;6.40;;
18661;SDS011;61528;49.456;11.098;2023-04-06T12:38:02;6.60;;;5.73;;
18661;SDS011;61528;49.456;11.098;2023-04-06T12:40:28;6.40;;;5.90;;
18661;SDS011;61528;49.456;11.098;2023-04-06T12:42:55;8.10;;;5.53;;
18661;SDS011;61528;49.456;11.098;2023-04-06T12:45:21;6.27;;;5.67;;
18661;SDS011;61528;49.456;11.098;2023-04-06T12:47:47;5.83;;;5.33;;
18661;SDS011;61528;49.456;11.098;2023-04-06T12:50:13;6.20;;;5.60;;
18661;SDS011;61528;49.456;11.098;2023-04-06T12:52:40;7.13;;;6.27;;
18661;SDS011;61528;49.456;11.098;2023-04-06T12:55:06;6.93;;;6.33;;
18661;SDS011;61528;49.456;11.098;2023-04-06T12:57:33;6.47;;;5.87;;
18661;SDS011;61528;49.456;11.098;2023-04-06T12:59:59;8.40;;;6.10;;
18661;SDS011;61528;49.456;11.098;2023-04-06T13:02:26;6.17;;;5.60;;
18661;SDS011;61528;49.456;11.098;2023-04-06T13:04:52;6.63;;;6.07;;
18661;SDS011;61528;49.456;11.098;2023-04-06T13:07:18;7.27;;;6.37;;
18661;SDS011;61528;49.456;11.098;2023-04-06T13:09:45;7.30;;;6.23;;
18661;SDS011;61528;49.456;11.098;2023-04-06T13:12:15;7.90;;;6.23;;
18661;SDS011;61528;49.456;11.098;2023-04-06T13:14:41;7.07;;;6.47;;
18661;SDS011;61528;49.456;11.098;2023-04-06T13:17:08;7.40;;;6.70;;
18661;SDS011;61528;49.456;11.098;2023-04-06T13:19:35;7.47;;;6.77;;
18661;SDS011;61528;49.456;11.098;2023-04-06T13:22:01;6.70;;;6.07;;
18661;SDS011;61528;49.456;11.098;2023-04-06T13:24:27;6.63;;;6.00;;
18661;SDS011;61528;49.456;11.098;2023-04-06T13:26:54;6.97;;;6.27;;
18661;SDS011;61528;49.456;11.098;2023-04-06T13:29:21;6.70;;;6.10;;
18661;SDS011;61528;49.456;11.098;2023-04-06T13:31:47;6.87;;;6.27;;
18661;SDS011;61528;49.456;11.098;2023-04-06T13:34:13;8.10;;;5.80;;
18661;SDS011;61528;49.456;11.098;2023-04-06T13:36:40;7.40;;;6.47;;
18661;SDS011;61528;49.456;11.098;2023-04-06T13:39:07;7.30;;;6.70;;
18661;SDS011;61528;49.456;11.098;2023-04-06T13:41:36;6.70;;;6.00;;
18661;SDS011;61528;49.456;11.098;2023-04-06T13:44:03;7.80;;;6.83;;
18661;SDS011;61528;49.456;11.098;2023-04-06T13:46:29;9.97;;;6.33;;
18661;SDS011;61528;49.456;11.098;2023-04-06T13:48:55;7.57;;;6.57;;
18661;SDS011;61528;49.456;11.098;2023-04-06T13:51:22;7.30;;;6.60;;
18661;SDS011;61528;49.456;11.098;2023-04-06T13:53:48;6.87;;;6.17;;
18661;SDS011;61528;49.456;11.098;2023-04-06T13:56:17;6.97;;;6.30;;
18661;SDS011;61528;49.456;11.098;2023-04-06T13:58:44;7.10;;;6.40;;
18661;SDS011;61528;49.456;11.098;2023-04-06T14:01:10;8.00;;;7.20;;
18661;SDS011;61528;49.456;11.098;2023-04-06T14:03:36;7.57;;;6.87;;
18661;SDS011;61528;49.456;11.098;2023-04-06T14:06:13;8.33;;;6.50;;
18661;SDS011;61528;49.456;11.098;2023-04-06T14:08:40;7.27;;;6.57;;
18661;SDS011;61528;49.456;11.098;2023-04-06T14:11:06;6.93;;;6.33;;
18661;SDS011;61528;49.456;11.098;2023-04-06T14:13:37;7.80;;;7.17;;
18661;SDS011;61528;49.456;11.098;2023-04-06T14:16:04;8.07;;;7.37;;
18661;SDS011;61528;49.456;11.098;2023-04-06T14:18:30;7.37;;;6.67;;
18661;SDS011;61528;49.456;11.098;2023-04-06T14:20:59;7.03;;;6.40;;
18661;SDS011;61528;49.456;11.098;2023-04-06T14:23:27;6.97;;;6.27;;
18661;SDS011;61528;49.456;11.098;2023-04-06T14:26:06;6.53;;;5.93;;
18661;SDS011;61528;49.456;11.098;2023-04-06T14:28:33;7.10;;;6.43;;
18661;SDS011;61528;49.456;11.098;2023-04-06T14:31:00;7.57;;;6.77;;
18661;SDS011;61528;49.456;11.098;2023-04-06T14:33:28;6.80;;;6.10;;
18661;SDS011;61528;49.456;11.098;2023-04-06T14:35:58;7.70;;;7.00;;
18661;SDS011;61528;49.456;11.098;2023-04-06T14:38:24;7.13;;;6.47;;
18661;SDS011;61528;49.456;11.098;2023-04-06T14:40:50;6.97;;;6.37;;
18661;SDS011;61528;49.456;11.098;2023-04-06T14:43:16;7.20;;;6.40;;